sensor_id;sensor_type;location;lat;lon;timestamp;P1;durP1;ratioP1;P2;durP2;ratioP2
53927;SDS011;39837;47.630;18.822;2022-12-18T00:00:57;12.00;;;5.97;;
53927;SDS011;39837;47.630;18.822;2022-12-18T00:03:41;6.03;;;4.63;;
53927;SDS011;39837;47.630;18.822;2022-12-18T00:06:26;3.05;;;2.90;;
53927;SDS011;39837;47.630;18.822;2022-12-18T00:09:11;4.15;;;3.72;;
53927;SDS011;39837;47.630;18.822;2022-12-18T00:11:55;2.30;;;2.22;;
53927;SDS011;39837;47.630;18.822;2022-12-18T00:14:39;7.88;;;4.57;;
53927;SDS011;39837;47.630;18.822;2022-12-18T00:17:24;16.27;;;6.30;;
53927;SDS011;39837;47.630;18.822;2022-12-18T00:20:08;6.13;;;4.88;;
53927;SDS011;39837;47.630;18.822;2022-12-18T00:22:52;3.45;;;3.25;;
53927;SDS011;39837;47.630;18.822;2022-12-18T00:25:37;3.85;;;2.13;;
53927;SDS011;39837;47.630;18.822;2022-12-18T00:28:20;6.40;;;3.90;;
53927;SDS011;39837;47.630;18.822;2022-12-18T00:31:09;7.03;;;3.83;;
53927;SDS011;39837;47.630;18.822;2022-12-18T00:33:55;6.28;;;5.60;;
53927;SDS011;39837;47.630;18.822;2022-12-18T00:36:40;4.10;;;3.75;;
53927;SDS011;39837;47.630;18.822;2022-12-18T00:39:25;6.00;;;5.50;;
53927;SDS011;39837;47.630;18.822;2022-12-18T00:42:10;9.50;;;3.95;;
53927;SDS011;39837;47.630;18.822;2022-12-18T00:45:13;4.68;;;3.53;;
53927;SDS011;39837;47.630;18.822;2022-12-18T00:47:57;4.50;;;4.18;;
53927;SDS011;39837;47.630;18.822;2022-12-18T00:50:41;5.88;;;4.32;;
53927;SDS011;39837;47.630;18.822;2022-12-18T00:53:25;5.68;;;5.18;;
53927;SDS011;39837;47.630;18.822;2022-12-18T00:56:09;4.45;;;3.70;;
53927;SDS011;39837;47.630;18.822;2022-12-18T00:58:54;3.75;;;3.25;;
53927;SDS011;39837;47.630;18.822;2022-12-18T01:01:38;4.93;;;2.83;;
53927;SDS011;39837;47.630;18.822;2022-12-18T01:04:22;4.18;;;3.35;;
53927;SDS011;39837;47.630;18.822;2022-12-18T01:07:06;4.15;;;3.67;;
53927;SDS011;39837;47.630;18.822;2022-12-18T01:09:50;4.32;;;3.97;;
53927;SDS011;39837;47.630;18.822;2022-12-18T01:12:34;7.38;;;5.78;;
53927;SDS011;39837;47.630;18.822;2022-12-18T01:15:18;13.60;;;6.97;;
53927;SDS011;39837;47.630;18.822;2022-12-18T01:18:02;4.20;;;3.90;;
53927;SDS011;39837;47.630;18.822;2022-12-18T01:20:46;6.45;;;5.90;;
53927;SDS011;39837;47.630;18.822;2022-12-18T01:23:30;16.55;;;4.40;;
53927;SDS011;39837;47.630;18.822;2022-12-18T01:26:15;8.30;;;4.03;;
53927;SDS011;39837;47.630;18.822;2022-12-18T01:28:59;3.38;;;3.17;;
53927;SDS011;39837;47.630;18.822;2022-12-18T01:31:43;9.93;;;5.20;;
53927;SDS011;39837;47.630;18.822;2022-12-18T01:34:27;5.50;;;5.10;;
53927;SDS011;39837;47.630;18.822;2022-12-18T01:37:11;5.72;;;3.63;;
53927;SDS011;39837;47.630;18.822;2022-12-18T01:39:55;5.03;;;4.43;;
53927;SDS011;39837;47.630;18.822;2022-12-18T01:42:39;6.53;;;4.10;;
53927;SDS011;39837;47.630;18.822;2022-12-18T01:45:30;3.97;;;3.67;;
53927;SDS011;39837;47.630;18.822;2022-12-18T01:48:15;4.55;;;4.20;;
53927;SDS011;39837;47.630;18.822;2022-12-18T01:50:58;6.43;;;4.53;;
53927;SDS011;39837;47.630;18.822;2022-12-18T01:53:43;5.25;;;4.85;;
53927;SDS011;39837;47.630;18.822;2022-12-18T01:56:28;3.15;;;2.97;;
53927;SDS011;39837;47.630;18.822;2022-12-18T01:59:12;6.05;;;3.08;;
53927;SDS011;39837;47.630;18.822;2022-12-18T02:01:56;4.22;;;3.95;;
53927;SDS011;39837;47.630;18.822;2022-12-18T02:04:40;4.07;;;3.50;;
53927;SDS011;39837;47.630;18.822;2022-12-18T02:10:29;3.95;;;3.65;;
53927;SDS011;39837;47.630;18.822;2022-12-18T02:16:12;4.20;;;3.97;;
53927;SDS011;39837;47.630;18.822;2022-12-18T02:18:59;4.75;;;4.32;;
53927;SDS011;39837;47.630;18.822;2022-12-18T02:21:57;7.97;;;3.55;;
53927;SDS011;39837;47.630;18.822;2022-12-18T02:25:01;26.08;;;6.85;;
53927;SDS011;39837;47.630;18.822;2022-12-18T02:27:56;2.13;;;2.10;;
53927;SDS011;39837;47.630;18.822;2022-12-18T02:30:45;3.53;;;3.28;;
53927;SDS011;39837;47.630;18.822;2022-12-18T02:33:31;8.98;;;3.30;;
53927;SDS011;39837;47.630;18.822;2022-12-18T02:36:17;2.78;;;2.70;;
53927;SDS011;39837;47.630;18.822;2022-12-18T02:39:02;4.97;;;4.40;;
53927;SDS011;39837;47.630;18.822;2022-12-18T02:41:47;3.22;;;3.03;;
53927;SDS011;39837;47.630;18.822;2022-12-18T02:44:32;4.70;;;4.25;;
53927;SDS011;39837;47.630;18.822;2022-12-18T02:47:27;6.85;;;6.18;;
53927;SDS011;39837;47.630;18.822;2022-12-18T02:50:26;5.68;;;4.90;;
53927;SDS011;39837;47.630;18.822;2022-12-18T02:56:18;6.93;;;5.28;;
53927;SDS011;39837;47.630;18.822;2022-12-18T02:59:09;5.20;;;4.80;;
53927;SDS011;39837;47.630;18.822;2022-12-18T03:02:02;16.10;;;4.30;;
53927;SDS011;39837;47.630;18.822;2022-12-18T03:05:01;5.43;;;4.88;;
53927;SDS011;39837;47.630;18.822;2022-12-18T03:07:51;6.75;;;2.63;;
53927;SDS011;39837;47.630;18.822;2022-12-18T03:10:42;5.90;;;3.83;;
53927;SDS011;39837;47.630;18.822;2022-12-18T03:13:56;2.55;;;2.45;;
53927;SDS011;39837;47.630;18.822;2022-12-18T03:16:40;6.63;;;3.03;;
53927;SDS011;39837;47.630;18.822;2022-12-18T03:19:25;6.38;;;4.38;;
53927;SDS011;39837;47.630;18.822;2022-12-18T03:22:12;9.73;;;6.20;;
53927;SDS011;39837;47.630;18.822;2022-12-18T03:24:57;3.80;;;3.50;;
53927;SDS011;39837;47.630;18.822;2022-12-18T03:27:44;3.50;;;2.88;;
53927;SDS011;39837;47.630;18.822;2022-12-18T03:30:31;4.05;;;3.63;;
53927;SDS011;39837;47.630;18.822;2022-12-18T03:33:18;5.40;;;4.28;;
53927;SDS011;39837;47.630;18.822;2022-12-18T03:36:05;3.33;;;3.15;;
53927;SDS011;39837;47.630;18.822;2022-12-18T03:38:50;4.65;;;2.90;;
53927;SDS011;39837;47.630;18.822;2022-12-18T03:41:38;22.33;;;2.75;;
53927;SDS011;39837;47.630;18.822;2022-12-18T03:50:54;5.75;;;3.97;;
53927;SDS011;39837;47.630;18.822;2022-12-18T03:53:54;2.80;;;2.63;;
53927;SDS011;39837;47.630;18.822;2022-12-18T03:56:42;5.82;;;3.47;;
53927;SDS011;39837;47.630;18.822;2022-12-18T03:59:30;7.57;;;4.68;;
53927;SDS011;39837;47.630;18.822;2022-12-18T04:02:15;5.22;;;2.17;;
53927;SDS011;39837;47.630;18.822;2022-12-18T04:05:00;3.72;;;3.22;;
53927;SDS011;39837;47.630;18.822;2022-12-18T04:07:47;4.57;;;2.50;;
53927;SDS011;39837;47.630;18.822;2022-12-18T04:10:32;2.78;;;2.67;;
53927;SDS011;39837;47.630;18.822;2022-12-18T04:13:32;7.60;;;3.63;;
53927;SDS011;39837;47.630;18.822;2022-12-18T04:16:18;3.17;;;3.05;;
53927;SDS011;39837;47.630;18.822;2022-12-18T04:19:02;3.63;;;2.88;;
53927;SDS011;39837;47.630;18.822;2022-12-18T04:21:46;3.00;;;2.80;;
53927;SDS011;39837;47.630;18.822;2022-12-18T04:24:30;2.22;;;2.13;;
53927;SDS011;39837;47.630;18.822;2022-12-18T04:27:14;2.63;;;2.40;;
53927;SDS011;39837;47.630;18.822;2022-12-18T04:29:58;2.70;;;2.60;;
53927;SDS011;39837;47.630;18.822;2022-12-18T04:32:42;7.78;;;3.10;;
53927;SDS011;39837;47.630;18.822;2022-12-18T04:35:26;3.35;;;3.20;;
53927;SDS011;39837;47.630;18.822;2022-12-18T04:38:10;2.60;;;2.50;;
53927;SDS011;39837;47.630;18.822;2022-12-18T04:40:54;3.92;;;3.72;;
53927;SDS011;39837;47.630;18.822;2022-12-18T04:43:38;3.13;;;2.92;;
53927;SDS011;39837;47.630;18.822;2022-12-18T04:46:22;2.83;;;2.67;;
53927;SDS011;39837;47.630;18.822;2022-12-18T04:49:06;3.22;;;2.97;;
53927;SDS011;39837;47.630;18.822;2022-12-18T04:51:50;3.95;;;3.10;;
53927;SDS011;39837;47.630;18.822;2022-12-18T04:54:35;1.60;;;1.60;;
53927;SDS011;39837;47.630;18.822;2022-12-18T04:57:19;2.97;;;2.88;;
53927;SDS011;39837;47.630;18.822;2022-12-18T05:00:03;4.18;;;3.80;;
53927;SDS011;39837;47.630;18.822;2022-12-18T05:05:34;2.78;;;2.67;;
53927;SDS011;39837;47.630;18.822;2022-12-18T05:08:18;2.30;;;2.25;;
53927;SDS011;39837;47.630;18.822;2022-12-18T05:11:04;5.03;;;4.63;;
53927;SDS011;39837;47.630;18.822;2022-12-18T05:13:49;4.40;;;3.85;;
53927;SDS011;39837;47.630;18.822;2022-12-18T05:16:33;6.35;;;3.42;;
53927;SDS011;39837;47.630;18.822;2022-12-18T05:19:17;3.33;;;3.03;;
53927;SDS011;39837;47.630;18.822;2022-12-18T05:22:01;2.92;;;2.83;;
53927;SDS011;39837;47.630;18.822;2022-12-18T05:24:45;2.15;;;2.15;;
53927;SDS011;39837;47.630;18.822;2022-12-18T05:27:29;2.15;;;2.13;;
53927;SDS011;39837;47.630;18.822;2022-12-18T05:30:13;3.28;;;3.08;;
53927;SDS011;39837;47.630;18.822;2022-12-18T05:32:57;2.92;;;2.72;;
53927;SDS011;39837;47.630;18.822;2022-12-18T05:35:42;4.43;;;4.13;;
53927;SDS011;39837;47.630;18.822;2022-12-18T05:38:27;2.00;;;2.00;;
53927;SDS011;39837;47.630;18.822;2022-12-18T05:41:11;2.42;;;2.35;;
53927;SDS011;39837;47.630;18.822;2022-12-18T05:43:55;2.85;;;2.75;;
53927;SDS011;39837;47.630;18.822;2022-12-18T05:46:40;1.73;;;1.70;;
53927;SDS011;39837;47.630;18.822;2022-12-18T05:49:25;2.03;;;1.92;;
53927;SDS011;39837;47.630;18.822;2022-12-18T05:52:09;9.38;;;3.45;;
53927;SDS011;39837;47.630;18.822;2022-12-18T05:54:53;2.13;;;2.10;;
53927;SDS011;39837;47.630;18.822;2022-12-18T05:57:37;2.65;;;2.55;;
53927;SDS011;39837;47.630;18.822;2022-12-18T06:00:21;6.43;;;3.22;;
53927;SDS011;39837;47.630;18.822;2022-12-18T06:03:06;3.15;;;2.95;;
53927;SDS011;39837;47.630;18.822;2022-12-18T06:05:51;2.20;;;2.10;;
53927;SDS011;39837;47.630;18.822;2022-12-18T06:08:35;5.15;;;3.90;;
53927;SDS011;39837;47.630;18.822;2022-12-18T06:11:21;4.03;;;3.75;;
53927;SDS011;39837;47.630;18.822;2022-12-18T06:14:06;2.20;;;2.10;;
53927;SDS011;39837;47.630;18.822;2022-12-18T06:16:50;4.95;;;4.57;;
53927;SDS011;39837;47.630;18.822;2022-12-18T06:19:35;3.20;;;2.35;;
53927;SDS011;39837;47.630;18.822;2022-12-18T06:22:19;7.55;;;4.28;;
53927;SDS011;39837;47.630;18.822;2022-12-18T06:25:04;2.92;;;2.28;;
53927;SDS011;39837;47.630;18.822;2022-12-18T06:27:49;4.40;;;4.18;;
53927;SDS011;39837;47.630;18.822;2022-12-18T06:30:33;13.55;;;5.95;;
53927;SDS011;39837;47.630;18.822;2022-12-18T06:33:17;4.13;;;3.85;;
53927;SDS011;39837;47.630;18.822;2022-12-18T06:36:03;9.73;;;3.28;;
53927;SDS011;39837;47.630;18.822;2022-12-18T06:38:48;2.28;;;1.90;;
53927;SDS011;39837;47.630;18.822;2022-12-18T06:41:33;9.25;;;3.03;;
53927;SDS011;39837;47.630;18.822;2022-12-18T06:44:17;5.68;;;3.40;;
53927;SDS011;39837;47.630;18.822;2022-12-18T06:47:01;5.93;;;3.92;;
53927;SDS011;39837;47.630;18.822;2022-12-18T06:49:45;5.78;;;4.88;;
53927;SDS011;39837;47.630;18.822;2022-12-18T06:52:31;5.25;;;3.58;;
53927;SDS011;39837;47.630;18.822;2022-12-18T06:55:15;2.13;;;2.03;;
53927;SDS011;39837;47.630;18.822;2022-12-18T06:57:59;2.47;;;2.38;;
53927;SDS011;39837;47.630;18.822;2022-12-18T07:00:43;1.88;;;1.77;;
53927;SDS011;39837;47.630;18.822;2022-12-18T07:03:28;3.30;;;3.03;;
53927;SDS011;39837;47.630;18.822;2022-12-18T07:06:16;2.95;;;2.75;;
53927;SDS011;39837;47.630;18.822;2022-12-18T07:09:02;3.35;;;3.15;;
53927;SDS011;39837;47.630;18.822;2022-12-18T07:11:46;4.50;;;4.13;;
53927;SDS011;39837;47.630;18.822;2022-12-18T07:14:30;3.67;;;3.47;;
53927;SDS011;39837;47.630;18.822;2022-12-18T07:17:13;7.28;;;3.63;;
53927;SDS011;39837;47.630;18.822;2022-12-18T07:19:57;3.50;;;3.30;;
53927;SDS011;39837;47.630;18.822;2022-12-18T07:22:41;3.17;;;3.08;;
53927;SDS011;39837;47.630;18.822;2022-12-18T07:25:25;7.00;;;3.22;;
53927;SDS011;39837;47.630;18.822;2022-12-18T07:28:09;2.97;;;2.78;;
53927;SDS011;39837;47.630;18.822;2022-12-18T07:30:53;6.90;;;2.83;;
53927;SDS011;39837;47.630;18.822;2022-12-18T07:33:37;3.95;;;3.55;;
53927;SDS011;39837;47.630;18.822;2022-12-18T07:36:22;8.32;;;3.42;;
53927;SDS011;39837;47.630;18.822;2022-12-18T07:39:06;6.30;;;4.90;;
53927;SDS011;39837;47.630;18.822;2022-12-18T07:41:50;3.88;;;3.58;;
53927;SDS011;39837;47.630;18.822;2022-12-18T07:44:53;3.38;;;2.92;;
53927;SDS011;39837;47.630;18.822;2022-12-18T07:47:37;11.60;;;3.53;;
53927;SDS011;39837;47.630;18.822;2022-12-18T07:50:21;3.33;;;3.13;;
53927;SDS011;39837;47.630;18.822;2022-12-18T07:53:05;5.57;;;3.80;;
53927;SDS011;39837;47.630;18.822;2022-12-18T07:55:54;8.60;;;4.05;;
53927;SDS011;39837;47.630;18.822;2022-12-18T07:58:38;3.47;;;3.30;;
53927;SDS011;39837;47.630;18.822;2022-12-18T08:01:22;4.68;;;3.97;;
53927;SDS011;39837;47.630;18.822;2022-12-18T08:04:07;7.40;;;6.13;;
53927;SDS011;39837;47.630;18.822;2022-12-18T08:06:51;10.45;;;7.55;;
53927;SDS011;39837;47.630;18.822;2022-12-18T08:09:35;9.52;;;5.90;;
53927;SDS011;39837;47.630;18.822;2022-12-18T08:12:18;6.50;;;6.05;;
53927;SDS011;39837;47.630;18.822;2022-12-18T08:15:02;12.13;;;6.50;;
53927;SDS011;39837;47.630;18.822;2022-12-18T08:17:47;14.07;;;9.13;;
53927;SDS011;39837;47.630;18.822;2022-12-18T08:20:31;8.43;;;7.00;;
53927;SDS011;39837;47.630;18.822;2022-12-18T08:23:16;8.10;;;6.05;;
53927;SDS011;39837;47.630;18.822;2022-12-18T08:26:00;5.90;;;5.43;;
53927;SDS011;39837;47.630;18.822;2022-12-18T08:28:44;6.20;;;5.72;;
53927;SDS011;39837;47.630;18.822;2022-12-18T08:31:29;8.90;;;7.97;;
53927;SDS011;39837;47.630;18.822;2022-12-18T08:34:13;6.72;;;5.18;;
53927;SDS011;39837;47.630;18.822;2022-12-18T08:36:58;7.00;;;6.30;;
53927;SDS011;39837;47.630;18.822;2022-12-18T08:39:42;13.07;;;6.13;;
53927;SDS011;39837;47.630;18.822;2022-12-18T08:42:25;19.02;;;6.97;;
53927;SDS011;39837;47.630;18.822;2022-12-18T08:45:28;9.73;;;7.63;;
53927;SDS011;39837;47.630;18.822;2022-12-18T08:48:12;27.90;;;13.40;;
53927;SDS011;39837;47.630;18.822;2022-12-18T08:50:56;12.98;;;8.52;;
53927;SDS011;39837;47.630;18.822;2022-12-18T08:53:41;9.80;;;8.88;;
53927;SDS011;39837;47.630;18.822;2022-12-18T08:56:25;27.90;;;12.85;;
53927;SDS011;39837;47.630;18.822;2022-12-18T08:59:09;17.63;;;10.60;;
53927;SDS011;39837;47.630;18.822;2022-12-18T09:01:53;35.30;;;12.95;;
53927;SDS011;39837;47.630;18.822;2022-12-18T09:04:38;19.23;;;12.45;;
53927;SDS011;39837;47.630;18.822;2022-12-18T09:07:23;21.15;;;12.27;;
53927;SDS011;39837;47.630;18.822;2022-12-18T09:10:07;19.65;;;10.95;;
53927;SDS011;39837;47.630;18.822;2022-12-18T09:12:51;26.10;;;14.35;;
53927;SDS011;39837;47.630;18.822;2022-12-18T09:15:40;21.88;;;12.48;;
53927;SDS011;39837;47.630;18.822;2022-12-18T09:18:29;23.83;;;14.23;;
53927;SDS011;39837;47.630;18.822;2022-12-18T09:21:14;23.38;;;12.32;;
53927;SDS011;39837;47.630;18.822;2022-12-18T09:23:59;44.55;;;17.35;;
53927;SDS011;39837;47.630;18.822;2022-12-18T09:26:44;34.15;;;14.40;;
53927;SDS011;39837;47.630;18.822;2022-12-18T09:29:28;37.67;;;14.68;;
53927;SDS011;39837;47.630;18.822;2022-12-18T09:32:12;31.65;;;18.00;;
53927;SDS011;39837;47.630;18.822;2022-12-18T09:34:56;38.63;;;17.38;;
53927;SDS011;39837;47.630;18.822;2022-12-18T09:37:40;24.50;;;12.98;;
53927;SDS011;39837;47.630;18.822;2022-12-18T09:40:26;27.83;;;15.30;;
53927;SDS011;39837;47.630;18.822;2022-12-18T09:43:29;30.13;;;16.58;;
53927;SDS011;39837;47.630;18.822;2022-12-18T09:46:19;29.73;;;15.13;;
53927;SDS011;39837;47.630;18.822;2022-12-18T09:49:11;17.35;;;12.00;;
53927;SDS011;39837;47.630;18.822;2022-12-18T09:52:05;34.30;;;16.13;;
53927;SDS011;39837;47.630;18.822;2022-12-18T09:54:55;29.75;;;13.85;;
53927;SDS011;39837;47.630;18.822;2022-12-18T09:57:52;18.55;;;11.73;;
53927;SDS011;39837;47.630;18.822;2022-12-18T10:00:39;23.15;;;10.20;;
53927;SDS011;39837;47.630;18.822;2022-12-18T10:03:22;14.73;;;9.60;;
53927;SDS011;39837;47.630;18.822;2022-12-18T10:06:10;19.70;;;11.45;;
53927;SDS011;39837;47.630;18.822;2022-12-18T10:12:14;18.42;;;11.30;;
53927;SDS011;39837;47.630;18.822;2022-12-18T10:18:01;22.60;;;12.05;;
53927;SDS011;39837;47.630;18.822;2022-12-18T10:21:00;21.33;;;10.10;;
53927;SDS011;39837;47.630;18.822;2022-12-18T10:23:54;26.05;;;12.05;;
53927;SDS011;39837;47.630;18.822;2022-12-18T10:26:53;17.95;;;9.43;;
53927;SDS011;39837;47.630;18.822;2022-12-18T10:29:41;18.15;;;10.82;;
53927;SDS011;39837;47.630;18.822;2022-12-18T10:32:28;14.75;;;9.05;;
53927;SDS011;39837;47.630;18.822;2022-12-18T10:35:31;19.80;;;11.43;;
53927;SDS011;39837;47.630;18.822;2022-12-18T10:41:01;39.75;;;21.63;;
53927;SDS011;39837;47.630;18.822;2022-12-18T10:43:47;22.25;;;11.88;;
53927;SDS011;39837;47.630;18.822;2022-12-18T10:46:31;20.80;;;8.32;;
53927;SDS011;39837;47.630;18.822;2022-12-18T10:49:51;12.18;;;7.90;;
53927;SDS011;39837;47.630;18.822;2022-12-18T10:52:31;15.35;;;9.60;;
53927;SDS011;39837;47.630;18.822;2022-12-18T10:55:15;19.45;;;9.55;;
53927;SDS011;39837;47.630;18.822;2022-12-18T11:01:13;18.00;;;8.90;;
53927;SDS011;39837;47.630;18.822;2022-12-18T11:04:00;18.25;;;10.07;;
53927;SDS011;39837;47.630;18.822;2022-12-18T11:09:46;24.13;;;8.82;;
53927;SDS011;39837;47.630;18.822;2022-12-18T11:12:44;17.85;;;10.38;;
53927;SDS011;39837;47.630;18.822;2022-12-18T11:15:29;12.48;;;7.82;;
53927;SDS011;39837;47.630;18.822;2022-12-18T11:18:17;9.15;;;6.18;;
53927;SDS011;39837;47.630;18.822;2022-12-18T11:21:23;13.02;;;7.18;;
53927;SDS011;39837;47.630;18.822;2022-12-18T11:24:07;14.10;;;6.93;;
53927;SDS011;39837;47.630;18.822;2022-12-18T11:27:04;17.05;;;8.57;;
53927;SDS011;39837;47.630;18.822;2022-12-18T11:29:49;19.05;;;9.55;;
53927;SDS011;39837;47.630;18.822;2022-12-18T11:32:35;16.60;;;8.70;;
53927;SDS011;39837;47.630;18.822;2022-12-18T11:35:40;14.68;;;8.88;;
53927;SDS011;39837;47.630;18.822;2022-12-18T11:38:35;19.08;;;9.77;;
53927;SDS011;39837;47.630;18.822;2022-12-18T11:41:34;16.17;;;8.55;;
53927;SDS011;39837;47.630;18.822;2022-12-18T11:53:19;17.45;;;9.88;;
53927;SDS011;39837;47.630;18.822;2022-12-18T12:33:44;22.30;;;9.38;;
53927;SDS011;39837;47.630;18.822;2022-12-18T12:39:50;24.50;;;10.40;;
53927;SDS011;39837;47.630;18.822;2022-12-18T12:42:37;17.33;;;9.90;;
53927;SDS011;39837;47.630;18.822;2022-12-18T12:45:44;16.52;;;8.35;;
53927;SDS011;39837;47.630;18.822;2022-12-18T12:48:34;14.50;;;7.90;;
53927;SDS011;39837;47.630;18.822;2022-12-18T12:51:25;17.35;;;8.95;;
53927;SDS011;39837;47.630;18.822;2022-12-18T12:54:12;23.52;;;10.15;;
53927;SDS011;39837;47.630;18.822;2022-12-18T12:57:06;24.85;;;13.07;;
53927;SDS011;39837;47.630;18.822;2022-12-18T13:09:03;19.15;;;11.25;;
53927;SDS011;39837;47.630;18.822;2022-12-18T13:11:48;21.85;;;11.20;;
53927;SDS011;39837;47.630;18.822;2022-12-18T13:14:51;22.88;;;9.25;;
53927;SDS011;39837;47.630;18.822;2022-12-18T13:17:35;24.08;;;10.50;;
53927;SDS011;39837;47.630;18.822;2022-12-18T13:20:19;22.05;;;11.10;;
53927;SDS011;39837;47.630;18.822;2022-12-18T13:28:52;16.27;;;10.18;;
53927;SDS011;39837;47.630;18.822;2022-12-18T13:34:25;19.85;;;10.85;;
53927;SDS011;39837;47.630;18.822;2022-12-18T13:43:24;20.30;;;8.70;;
53927;SDS011;39837;47.630;18.822;2022-12-18T13:51:56;23.77;;;10.60;;
53927;SDS011;39837;47.630;18.822;2022-12-18T13:54:41;16.48;;;9.82;;
53927;SDS011;39837;47.630;18.822;2022-12-18T14:03:20;22.60;;;10.43;;
53927;SDS011;39837;47.630;18.822;2022-12-18T14:06:06;19.17;;;10.07;;
53927;SDS011;39837;47.630;18.822;2022-12-18T14:08:52;18.25;;;7.43;;
53927;SDS011;39837;47.630;18.822;2022-12-18T14:11:36;14.88;;;10.13;;
53927;SDS011;39837;47.630;18.822;2022-12-18T14:14:21;18.95;;;9.73;;
53927;SDS011;39837;47.630;18.822;2022-12-18T14:17:08;22.33;;;10.30;;
53927;SDS011;39837;47.630;18.822;2022-12-18T14:19:54;9.75;;;7.07;;
53927;SDS011;39837;47.630;18.822;2022-12-18T14:22:37;19.67;;;9.73;;
53927;SDS011;39837;47.630;18.822;2022-12-18T14:25:29;17.25;;;9.50;;
53927;SDS011;39837;47.630;18.822;2022-12-18T14:28:14;9.95;;;4.93;;
53927;SDS011;39837;47.630;18.822;2022-12-18T14:30:59;14.85;;;7.03;;
53927;SDS011;39837;47.630;18.822;2022-12-18T14:33:42;14.18;;;9.93;;
53927;SDS011;39837;47.630;18.822;2022-12-18T14:36:27;11.63;;;8.15;;
53927;SDS011;39837;47.630;18.822;2022-12-18T14:39:15;16.23;;;8.80;;
53927;SDS011;39837;47.630;18.822;2022-12-18T14:42:00;12.43;;;9.20;;
53927;SDS011;39837;47.630;18.822;2022-12-18T14:44:44;10.75;;;6.97;;
53927;SDS011;39837;47.630;18.822;2022-12-18T14:47:28;15.15;;;9.10;;
53927;SDS011;39837;47.630;18.822;2022-12-18T14:50:13;15.07;;;8.55;;
53927;SDS011;39837;47.630;18.822;2022-12-18T14:52:57;33.30;;;8.32;;
53927;SDS011;39837;47.630;18.822;2022-12-18T14:55:44;10.95;;;8.55;;
53927;SDS011;39837;47.630;18.822;2022-12-18T14:58:30;22.92;;;8.60;;
53927;SDS011;39837;47.630;18.822;2022-12-18T15:01:21;18.33;;;8.98;;
53927;SDS011;39837;47.630;18.822;2022-12-18T15:04:23;7.90;;;5.18;;
53927;SDS011;39837;47.630;18.822;2022-12-18T15:15:47;16.13;;;9.60;;
53927;SDS011;39837;47.630;18.822;2022-12-18T15:18:33;6.07;;;5.47;;
53927;SDS011;39837;47.630;18.822;2022-12-18T15:21:20;12.52;;;9.55;;
53927;SDS011;39837;47.630;18.822;2022-12-18T15:24:04;9.65;;;7.95;;
53927;SDS011;39837;47.630;18.822;2022-12-18T15:26:58;8.98;;;6.72;;
53927;SDS011;39837;47.630;18.822;2022-12-18T15:29:43;8.63;;;6.32;;
53927;SDS011;39837;47.630;18.822;2022-12-18T15:32:48;10.52;;;5.72;;
53927;SDS011;39837;47.630;18.822;2022-12-18T15:35:33;11.63;;;6.30;;
53927;SDS011;39837;47.630;18.822;2022-12-18T15:38:17;12.65;;;6.13;;
53927;SDS011;39837;47.630;18.822;2022-12-18T15:41:02;9.88;;;6.82;;
53927;SDS011;39837;47.630;18.822;2022-12-18T15:43:50;7.35;;;6.65;;
53927;SDS011;39837;47.630;18.822;2022-12-18T15:46:36;10.32;;;5.18;;
53927;SDS011;39837;47.630;18.822;2022-12-18T15:49:21;16.50;;;7.72;;
53927;SDS011;39837;47.630;18.822;2022-12-18T15:52:05;7.90;;;6.10;;
53927;SDS011;39837;47.630;18.822;2022-12-18T15:54:50;10.38;;;6.65;;
53927;SDS011;39837;47.630;18.822;2022-12-18T15:57:53;7.25;;;5.53;;
53927;SDS011;39837;47.630;18.822;2022-12-18T16:00:38;16.80;;;7.75;;
53927;SDS011;39837;47.630;18.822;2022-12-18T16:03:24;9.43;;;6.35;;
53927;SDS011;39837;47.630;18.822;2022-12-18T16:06:09;8.27;;;6.72;;
53927;SDS011;39837;47.630;18.822;2022-12-18T16:08:54;4.57;;;4.05;;
53927;SDS011;39837;47.630;18.822;2022-12-18T16:11:41;5.38;;;4.85;;
53927;SDS011;39837;47.630;18.822;2022-12-18T16:14:26;21.35;;;6.57;;
53927;SDS011;39837;47.630;18.822;2022-12-18T16:17:13;12.38;;;5.22;;
53927;SDS011;39837;47.630;18.822;2022-12-18T16:19:58;5.63;;;4.93;;
53927;SDS011;39837;47.630;18.822;2022-12-18T16:22:43;4.28;;;3.97;;
53927;SDS011;39837;47.630;18.822;2022-12-18T16:25:30;5.60;;;5.20;;
53927;SDS011;39837;47.630;18.822;2022-12-18T16:28:14;6.50;;;5.53;;
53927;SDS011;39837;47.630;18.822;2022-12-18T16:30:58;7.32;;;5.00;;
53927;SDS011;39837;47.630;18.822;2022-12-18T16:33:43;6.32;;;5.03;;
53927;SDS011;39837;47.630;18.822;2022-12-18T16:36:27;8.98;;;4.78;;
53927;SDS011;39837;47.630;18.822;2022-12-18T16:39:11;6.32;;;5.15;;
53927;SDS011;39837;47.630;18.822;2022-12-18T16:41:56;4.53;;;4.05;;
53927;SDS011;39837;47.630;18.822;2022-12-18T16:44:41;9.73;;;4.30;;
53927;SDS011;39837;47.630;18.822;2022-12-18T16:47:26;4.97;;;3.92;;
53927;SDS011;39837;47.630;18.822;2022-12-18T16:50:11;8.10;;;7.15;;
53927;SDS011;39837;47.630;18.822;2022-12-18T16:52:56;4.95;;;4.65;;
53927;SDS011;39837;47.630;18.822;2022-12-18T16:55:41;4.22;;;3.95;;
53927;SDS011;39837;47.630;18.822;2022-12-18T16:58:26;15.25;;;6.38;;
53927;SDS011;39837;47.630;18.822;2022-12-18T17:01:10;5.30;;;4.95;;
53927;SDS011;39837;47.630;18.822;2022-12-18T17:03:59;6.22;;;4.28;;
53927;SDS011;39837;47.630;18.822;2022-12-18T17:06:47;5.15;;;4.60;;
53927;SDS011;39837;47.630;18.822;2022-12-18T17:09:35;7.68;;;5.40;;
53927;SDS011;39837;47.630;18.822;2022-12-18T17:12:20;4.05;;;3.67;;
53927;SDS011;39837;47.630;18.822;2022-12-18T17:15:05;4.38;;;4.13;;
53927;SDS011;39837;47.630;18.822;2022-12-18T17:17:50;3.78;;;3.45;;
53927;SDS011;39837;47.630;18.822;2022-12-18T17:20:35;4.72;;;4.30;;
53927;SDS011;39837;47.630;18.822;2022-12-18T17:23:20;4.95;;;4.07;;
53927;SDS011;39837;47.630;18.822;2022-12-18T17:26:04;4.05;;;3.75;;
53927;SDS011;39837;47.630;18.822;2022-12-18T17:28:52;3.28;;;3.08;;
53927;SDS011;39837;47.630;18.822;2022-12-18T17:31:36;4.00;;;3.67;;
53927;SDS011;39837;47.630;18.822;2022-12-18T17:34:21;3.47;;;3.35;;
53927;SDS011;39837;47.630;18.822;2022-12-18T17:37:06;3.78;;;3.55;;
53927;SDS011;39837;47.630;18.822;2022-12-18T17:39:51;7.72;;;4.03;;
53927;SDS011;39837;47.630;18.822;2022-12-18T17:42:57;4.93;;;4.63;;
53927;SDS011;39837;47.630;18.822;2022-12-18T17:45:41;8.63;;;3.72;;
53927;SDS011;39837;47.630;18.822;2022-12-18T17:48:26;5.00;;;4.57;;
53927;SDS011;39837;47.630;18.822;2022-12-18T17:51:11;6.18;;;5.63;;
53927;SDS011;39837;47.630;18.822;2022-12-18T17:53:56;3.92;;;3.63;;
53927;SDS011;39837;47.630;18.822;2022-12-18T17:56:40;6.28;;;5.13;;
53927;SDS011;39837;47.630;18.822;2022-12-18T17:59:25;3.10;;;2.97;;
53927;SDS011;39837;47.630;18.822;2022-12-18T18:02:10;6.53;;;3.95;;
53927;SDS011;39837;47.630;18.822;2022-12-18T18:04:54;4.93;;;4.57;;
53927;SDS011;39837;47.630;18.822;2022-12-18T18:07:39;3.42;;;2.53;;
53927;SDS011;39837;47.630;18.822;2022-12-18T18:10:23;5.88;;;5.18;;
53927;SDS011;39837;47.630;18.822;2022-12-18T18:13:16;4.90;;;3.70;;
53927;SDS011;39837;47.630;18.822;2022-12-18T18:16:21;3.05;;;2.95;;
53927;SDS011;39837;47.630;18.822;2022-12-18T18:19:07;3.65;;;3.33;;
53927;SDS011;39837;47.630;18.822;2022-12-18T18:21:53;2.85;;;2.65;;
53927;SDS011;39837;47.630;18.822;2022-12-18T18:24:38;3.88;;;2.97;;
53927;SDS011;39837;47.630;18.822;2022-12-18T18:27:22;6.78;;;4.43;;
53927;SDS011;39837;47.630;18.822;2022-12-18T18:30:07;4.47;;;3.60;;